Time;durP1;ratioP1;P1;durP2;ratioP2;P2;SDS_P1;SDS_P2;PMS_P1;PMS_P2;Temp;Humidity;BMP_temperature;BMP_pressure;BME280_temperature;BME280_humidity;BME280_pressure;Samples;Min_cycle;Max_cycle;Signal;HPM_P1;HPM_P2
2022/12/21 00:01:05;;;;;;;35.70;18.63;;;;;;;;;;5032683;28;20253;-73
2022/12/21 00:03:30;;;;;;;34.17;18.00;;;;;;;;;;5029763;28;20284;-74
2022/12/21 00:05:56;;;;;;;29.57;17.43;;;;;;;;;;5034364;28;20221;-73
2022/12/21 00:08:22;;;;;;;40.13;19.00;;;;;;;;;;5034925;28;20261;-73
2022/12/21 00:10:47;;;;;;;38.03;19.97;;;;;;;;;;5032643;28;20282;-73
2022/12/21 00:13:12;;;;;;;34.53;18.33;;;;;;;;;;5033243;28;20546;-73
2022/12/21 00:15:37;;;;;;;30.17;17.57;;;;;;;;;;5032248;28;20343;-74
2022/12/21 00:18:02;;;;;;;34.27;18.50;;;;;;;;;;5032359;28;20684;-73
2022/12/21 00:20:28;;;;;;;33.57;18.70;;;;;;;;;;5032058;28;20198;-73
2022/12/21 00:22:53;;;;;;;35.97;19.07;;;;;;;;;;5031135;28;20178;-72
2022/12/21 00:25:18;;;;;;;31.17;17.90;;;;;;;;;;5032208;28;20198;-73
2022/12/21 00:27:43;;;;;;;34.77;18.73;;;;;;;;;;5032874;28;20178;-73
2022/12/21 00:30:09;;;;;;;36.20;17.97;;;;;;;;;;5035222;28;20244;-73
2022/12/21 00:32:34;;;;;;;32.23;18.77;;;;;;;;;;5030900;28;20206;-73
2022/12/21 00:34:59;;;;;;;36.17;18.90;;;;;;;;;;5033206;28;20190;-73
2022/12/21 00:37:24;;;;;;;33.27;17.03;;;;;;;;;;5033838;28;20548;-73
2022/12/21 00:39:49;;;;;;;32.73;17.40;;;;;;;;;;5033033;28;20202;-73
2022/12/21 00:42:14;;;;;;;32.27;19.10;;;;;;;;;;5031895;28;20182;-73
2022/12/21 00:44:40;;;;;;;37.10;18.63;;;;;;;;;;5031497;28;20261;-73
2022/12/21 00:47:05;;;;;;;32.17;17.63;;;;;;;;;;5030096;28;20613;-73
2022/12/21 00:49:30;;;;;;;32.50;18.87;;;;;;;;;;5032005;28;20632;-73
2022/12/21 00:51:55;;;;;;;32.63;19.17;;;;;;;;;;5033710;28;20201;-73
2022/12/21 00:54:20;;;;;;;35.03;17.00;;;;;;;;;;5030474;28;20183;-72
2022/12/21 00:56:46;;;;;;;36.83;18.60;;;;;;;;;;5020539;28;20213;-72
2022/12/21 00:59:11;;;;;;;42.33;17.60;;;;;;;;;;5034471;28;20174;-74
2022/12/21 01:01:36;;;;;;;29.03;15.47;;;;;;;;;;5034894;28;20178;-72
2022/12/21 01:04:01;;;;;;;34.30;17.73;;;;;;;;;;5031037;28;20170;-74
2022/12/21 01:06:28;;;;;;;34.07;16.33;;;;;;;;;;5026669;28;20198;-73
2022/12/21 01:08:54;;;;;;;32.33;15.63;;;;;;;;;;5030336;28;20175;-74
2022/12/21 01:11:20;;;;;;;29.90;16.17;;;;;;;;;;5033373;28;20268;-72
2022/12/21 01:13:46;;;;;;;35.30;16.87;;;;;;;;;;5032782;28;20178;-72
2022/12/21 01:16:22;;;;;;;35.83;17.17;;;;;;;;;;5026972;28;20581;-73
2022/12/21 01:18:47;;;;;;;29.43;16.10;;;;;;;;;;5034606;28;20178;-73
2022/12/21 01:21:14;;;;;;;33.07;16.27;;;;;;;;;;5025203;28;20206;-73
2022/12/21 01:23:39;;;;;;;30.73;16.33;;;;;;;;;;5028676;28;20175;-73
2022/12/21 01:26:05;;;;;;;37.17;17.47;;;;;;;;;;5028838;28;20253;-73
2022/12/21 01:28:31;;;;;;;30.33;16.20;;;;;;;;;;5024775;28;20175;-73
2022/12/21 01:30:58;;;;;;;29.63;16.47;;;;;;;;;;5030804;28;20251;-73
2022/12/21 01:33:24;;;;;;;28.10;15.90;;;;;;;;;;5033345;28;20189;-73
2022/12/21 01:35:49;;;;;;;32.17;16.87;;;;;;;;;;5033924;28;20214;-73
2022/12/21 01:38:14;;;;;;;28.33;15.43;;;;;;;;;;5032755;28;20178;-73
2022/12/21 01:40:39;;;;;;;34.53;16.60;;;;;;;;;;5031920;28;20584;-73
2022/12/21 01:43:14;;;;;;;29.77;15.17;;;;;;;;;;5032815;28;20171;-74
2022/12/21 01:45:39;;;;;;;33.23;16.60;;;;;;;;;;5031774;28;20643;-74
2022/12/21 01:48:06;;;;;;;32.17;15.00;;;;;;;;;;5031964;28;20242;-72
2022/12/21 01:50:54;;;;;;;26.97;15.13;;;;;;;;;;5012797;28;20183;-73
2022/12/21 01:53:25;;;;;;;30.70;15.23;;;;;;;;;;5012512;28;20179;-73
2022/12/21 01:55:53;;;;;;;30.57;16.37;;;;;;;;;;5030554;28;20202;-73
2022/12/21 01:58:18;;;;;;;30.30;15.47;;;;;;;;;;5028860;28;20190;-72
2022/12/21 02:00:43;;;;;;;28.40;16.17;;;;;;;;;;5032346;28;20631;-72
2022/12/21 02:03:12;;;;;;;34.23;16.63;;;;;;;;;;5026386;28;20233;-74
2022/12/21 02:06:00;;;;;;;30.13;15.80;;;;;;;;;;5029984;28;20314;-72
2022/12/21 02:08:26;;;;;;;34.23;16.37;;;;;;;;;;5030329;28;20263;-72
2022/12/21 02:10:52;;;;;;;38.00;17.17;;;;;;;;;;5030974;28;20565;-72
2022/12/21 02:13:17;;;;;;;35.07;17.23;;;;;;;;;;5031524;28;20239;-72
2022/12/21 02:16:02;;;;;;;30.20;16.20;;;;;;;;;;5022465;28;20306;-72
2022/12/21 02:18:45;;;;;;;27.03;14.60;;;;;;;;;;5030551;28;20699;-74
2022/12/21 02:21:17;;;;;;;33.13;16.70;;;;;;;;;;5024628;28;20238;-73
2022/12/21 02:24:01;;;;;;;30.77;15.67;;;;;;;;;;5026446;28;20175;-72
2022/12/21 02:26:39;;;;;;;33.77;17.40;;;;;;;;;;5030565;28;20293;-72
2022/12/21 02:29:21;;;;;;;34.43;16.93;;;;;;;;;;5031062;28;20190;-72
2022/12/21 02:31:58;;;;;;;37.13;19.23;;;;;;;;;;5022691;28;20384;-73
2022/12/21 02:34:32;;;;;;;32.43;17.23;;;;;;;;;;5032351;28;20616;-72
2022/12/21 02:37:04;;;;;;;36.00;16.60;;;;;;;;;;5031268;28;20212;-72
2022/12/21 02:39:32;;;;;;;36.53;17.63;;;;;;;;;;5031905;28;20230;-72
2022/12/21 02:42:02;;;;;;;36.07;17.47;;;;;;;;;;5029989;28;20232;-73
2022/12/21 02:44:30;;;;;;;33.87;16.83;;;;;;;;;;5029349;28;20175;-72
2022/12/21 02:46:56;;;;;;;43.33;19.17;;;;;;;;;;5030171;28;20204;-73
2022/12/21 02:49:33;;;;;;;35.70;16.43;;;;;;;;;;5031923;28;20548;-73
2022/12/21 02:51:58;;;;;;;30.37;16.67;;;;;;;;;;5029053;28;20216;-73
2022/12/21 02:54:24;;;;;;;35.10;17.57;;;;;;;;;;5026782;28;20938;-73
2022/12/21 02:56:49;;;;;;;35.90;17.73;;;;;;;;;;5035114;28;20296;-72
2022/12/21 02:59:16;;;;;;;30.83;15.63;;;;;;;;;;5029184;28;20189;-74
2022/12/21 03:01:47;;;;;;;29.27;16.10;;;;;;;;;;5028038;28;20170;-73
2022/12/21 03:04:15;;;;;;;29.27;16.30;;;;;;;;;;5033486;28;20170;-73
2022/12/21 03:06:46;;;;;;;38.63;17.13;;;;;;;;;;5033580;28;20225;-72
2022/12/21 03:09:17;;;;;;;38.00;16.40;;;;;;;;;;5035868;28;20206;-73
2022/12/21 03:11:58;;;;;;;45.00;17.10;;;;;;;;;;5030548;28;20648;-72
2022/12/21 03:14:37;;;;;;;69.87;18.57;;;;;;;;;;5035550;28;20174;-72
2022/12/21 03:17:10;;;;;;;35.13;16.17;;;;;;;;;;5031103;28;20248;-73
2022/12/21 03:19:38;;;;;;;45.73;16.63;;;;;;;;;;5034944;28;20198;-72
2022/12/21 03:22:10;;;;;;;84.67;21.17;;;;;;;;;;5035852;28;20731;-72
2022/12/21 03:24:59;;;;;;;67.30;19.23;;;;;;;;;;5034418;28;20183;-72
2022/12/21 03:27:30;;;;;;;53.27;18.97;;;;;;;;;;4996535;28;20633;-72
2022/12/21 03:30:00;;;;;;;36.40;15.67;;;;;;;;;;5034359;28;20178;-73
2022/12/21 03:32:30;;;;;;;31.57;16.93;;;;;;;;;;5035045;28;20710;-71
2022/12/21 03:34:57;;;;;;;59.33;18.53;;;;;;;;;;5035847;28;20221;-72
2022/12/21 03:37:27;;;;;;;57.70;19.43;;;;;;;;;;5031513;22;20231;-81
2022/12/21 03:39:58;;;;;;;51.50;18.07;;;;;;;;;;5014554;28;20206;-81
2022/12/21 03:42:25;;;;;;;90.80;21.07;;;;;;;;;;5015588;28;20182;-82
2022/12/21 03:44:55;;;;;;;141.37;25.97;;;;;;;;;;5015498;28;20205;-81
2022/12/21 03:47:23;;;;;;;48.93;17.83;;;;;;;;;;5014960;28;20245;-82
2022/12/21 03:49:51;;;;;;;71.27;19.40;;;;;;;;;;5008847;28;20568;-82
2022/12/21 03:52:19;;;;;;;51.10;18.97;;;;;;;;;;5013791;28;20183;-81
2022/12/21 03:54:59;;;;;;;67.47;18.93;;;;;;;;;;5010843;28;20572;-82
2022/12/21 03:57:26;;;;;;;132.57;25.00;;;;;;;;;;5009902;28;20609;-82
2022/12/21 03:59:52;;;;;;;30.33;15.73;;;;;;;;;;5010063;28;20219;-82
2022/12/21 04:02:24;;;;;;;72.77;19.10;;;;;;;;;;5011998;28;20228;-82
2022/12/21 04:04:55;;;;;;;89.20;22.90;;;;;;;;;;5004862;28;20171;-82
2022/12/21 04:07:24;;;;;;;74.10;20.43;;;;;;;;;;5013094;28;20199;-82
2022/12/21 04:09:54;;;;;;;37.03;17.90;;;;;;;;;;5014244;28;20264;-82
2022/12/21 04:12:37;;;;;;;42.13;16.33;;;;;;;;;;5008191;28;20183;-81
2022/12/21 04:16:02;;;;;;;75.43;19.53;;;;;;;;;;5013773;28;20183;-81
2022/12/21 04:18:11;;;;;;;57.27;18.47;;;;;;;;;;5009735;28;20194;-82
2022/12/21 04:20:36;;;;;;;59.17;18.67;;;;;;;;;;5013706;28;20556;-82
2022/12/21 04:28:30;;;;;;;79.57;19.53;;;;;;;;;;5013700;28;20186;-82
2022/12/21 04:30:56;;;;;;;51.47;17.77;;;;;;;;;;5009023;28;20171;-82
2022/12/21 04:33:22;;;;;;;67.93;19.17;;;;;;;;;;5010604;28;20549;-82
2022/12/21 04:38:33;;;;;;;54.53;19.43;;;;;;;;;;5014229;28;20221;-81
2022/12/21 04:40:58;;;;;;;38.40;17.40;;;;;;;;;;5006706;28;20199;-82
2022/12/21 04:43:23;;;;;;;38.53;17.57;;;;;;;;;;5011557;28;20633;-82
2022/12/21 04:45:49;;;;;;;51.03;19.13;;;;;;;;;;5015035;28;20284;-82
2022/12/21 04:48:15;;;;;;;98.07;23.97;;;;;;;;;;5013573;28;20199;-82
2022/12/21 04:50:41;;;;;;;50.50;20.10;;;;;;;;;;5008396;28;20182;-82
2022/12/21 04:53:06;;;;;;;40.30;18.57;;;;;;;;;;5010241;28;20266;-82
2022/12/21 04:55:31;;;;;;;51.60;19.63;;;;;;;;;;5002567;28;20182;-82
2022/12/21 04:57:57;;;;;;;37.63;19.27;;;;;;;;;;5012524;28;20614;-82
2022/12/21 05:00:22;;;;;;;78.40;22.37;;;;;;;;;;5009734;28;20301;-82
2022/12/21 05:02:47;;;;;;;78.53;23.90;;;;;;;;;;5011726;28;20262;-82
2022/12/21 05:05:12;;;;;;;86.13;25.23;;;;;;;;;;5011308;28;20186;-82
2022/12/21 05:07:38;;;;;;;62.80;23.13;;;;;;;;;;5007485;28;20668;-82
2022/12/21 05:10:03;;;;;;;59.00;23.77;;;;;;;;;;5007605;28;20183;-81
2022/12/21 05:12:28;;;;;;;64.97;25.50;;;;;;;;;;5003158;28;20183;-81
2022/12/21 05:14:53;;;;;;;84.87;25.87;;;;;;;;;;4987845;28;20183;-82
2022/12/21 05:17:19;;;;;;;41.70;22.43;;;;;;;;;;5006243;28;20665;-82
2022/12/21 05:19:46;;;;;;;81.70;24.90;;;;;;;;;;5013231;28;20282;-82
2022/12/21 05:22:11;;;;;;;111.03;30.23;;;;;;;;;;5008726;28;20183;-81
2022/12/21 05:24:37;;;;;;;74.83;25.87;;;;;;;;;;4998072;28;20269;-82
2022/12/21 05:27:02;;;;;;;57.17;25.33;;;;;;;;;;5000149;28;20319;-82
2022/12/21 05:29:27;;;;;;;55.83;25.53;;;;;;;;;;5001487;28;20238;-82
2022/12/21 05:31:52;;;;;;;61.93;26.73;;;;;;;;;;5003480;28;20262;-83
2022/12/21 05:34:17;;;;;;;75.27;26.00;;;;;;;;;;5008837;28;20220;-82
2022/12/21 05:36:43;;;;;;;67.93;27.17;;;;;;;;;;5011435;28;20206;-83
2022/12/21 05:39:08;;;;;;;55.43;26.37;;;;;;;;;;5007522;28;20661;-82
2022/12/21 05:41:33;;;;;;;60.57;28.27;;;;;;;;;;5007010;28;20665;-82
2022/12/21 05:43:58;;;;;;;67.67;26.50;;;;;;;;;;5009746;28;20183;-82
2022/12/21 05:46:23;;;;;;;63.10;28.60;;;;;;;;;;5005190;28;20198;-82
2022/12/21 05:48:49;;;;;;;67.80;26.57;;;;;;;;;;5008164;28;20174;-83
2022/12/21 05:51:14;;;;;;;62.73;28.17;;;;;;;;;;5011792;28;20191;-82
2022/12/21 05:53:40;;;;;;;60.53;25.37;;;;;;;;;;5010351;28;20186;-82
2022/12/21 05:56:05;;;;;;;72.03;27.97;;;;;;;;;;5003459;28;20222;-82
2022/12/21 05:58:31;;;;;;;73.03;28.77;;;;;;;;;;5013537;28;20184;-81
2022/12/21 06:00:59;;;;;;;63.77;28.63;;;;;;;;;;5006963;28;20569;-82
2022/12/21 06:03:24;;;;;;;57.67;26.93;;;;;;;;;;5009043;28;20187;-81
2022/12/21 06:05:49;;;;;;;61.23;28.43;;;;;;;;;;5006931;28;20306;-82
2022/12/21 06:08:14;;;;;;;66.77;28.30;;;;;;;;;;5007577;28;20186;-82
2022/12/21 06:10:39;;;;;;;67.50;29.00;;;;;;;;;;5011259;28;20182;-82
2022/12/21 06:13:06;;;;;;;61.43;27.43;;;;;;;;;;5011559;28;20182;-81
2022/12/21 06:15:31;;;;;;;61.77;29.17;;;;;;;;;;5021100;28;20178;-81
2022/12/21 06:17:56;;;;;;;57.17;26.63;;;;;;;;;;5021167;28;20249;-81
2022/12/21 06:20:21;;;;;;;60.93;25.07;;;;;;;;;;5014436;28;20219;-81
2022/12/21 06:22:46;;;;;;;55.40;25.40;;;;;;;;;;5011120;28;20206;-82
2022/12/21 06:25:12;;;;;;;53.93;25.00;;;;;;;;;;5012873;28;20617;-81
2022/12/21 06:27:37;;;;;;;56.37;25.23;;;;;;;;;;5011413;28;20210;-81
2022/12/21 06:30:02;;;;;;;55.77;27.17;;;;;;;;;;5013586;28;20183;-82
2022/12/21 06:32:28;;;;;;;45.37;24.03;;;;;;;;;;5007172;28;20548;-81
2022/12/21 06:34:53;;;;;;;48.67;24.53;;;;;;;;;;5007200;28;20539;-81
2022/12/21 06:37:18;;;;;;;50.90;23.60;;;;;;;;;;5003460;28;20222;-81
2022/12/21 06:39:43;;;;;;;49.87;23.37;;;;;;;;;;5007242;28;20277;-81
2022/12/21 06:42:08;;;;;;;47.43;24.37;;;;;;;;;;5004549;28;20195;-82
2022/12/21 06:44:34;;;;;;;54.23;24.43;;;;;;;;;;5008775;28;20171;-81
2022/12/21 06:46:59;;;;;;;47.97;22.17;;;;;;;;;;5009961;28;20195;-81
2022/12/21 06:49:24;;;;;;;47.23;23.20;;;;;;;;;;5014269;28;20183;-81
2022/12/21 06:51:49;;;;;;;40.70;23.03;;;;;;;;;;5004817;28;20175;-81
2022/12/21 06:54:15;;;;;;;41.73;22.57;;;;;;;;;;5010249;28;20575;-81
2022/12/21 06:56:40;;;;;;;37.40;21.97;;;;;;;;;;5012450;28;20746;-82
2022/12/21 06:59:05;;;;;;;39.70;23.43;;;;;;;;;;5009239;28;20672;-81
2022/12/21 07:01:34;;;;;;;42.50;21.90;;;;;;;;;;4993487;28;20218;-81
2022/12/21 07:03:59;;;;;;;41.97;21.70;;;;;;;;;;5006246;28;20205;-81
2022/12/21 07:06:26;;;;;;;38.87;22.43;;;;;;;;;;5009994;28;20222;-81
2022/12/21 07:08:51;;;;;;;39.23;20.50;;;;;;;;;;5008231;28;20229;-81
2022/12/21 07:11:19;;;;;;;43.20;22.93;;;;;;;;;;5005614;28;20182;-81
2022/12/21 07:13:45;;;;;;;40.90;22.60;;;;;;;;;;5006973;28;20211;-82
2022/12/21 07:16:11;;;;;;;35.77;21.80;;;;;;;;;;5013039;28;20248;-81
2022/12/21 07:18:37;;;;;;;36.23;20.57;;;;;;;;;;5003340;28;20187;-81
2022/12/21 07:21:05;;;;;;;37.73;21.20;;;;;;;;;;5001773;28;20486;-82
2022/12/21 07:23:30;;;;;;;43.60;22.20;;;;;;;;;;5010343;28;20665;-81
2022/12/21 07:25:56;;;;;;;37.77;20.77;;;;;;;;;;5001596;28;20209;-82
2022/12/21 07:28:22;;;;;;;49.20;22.47;;;;;;;;;;5010481;28;20207;-81
2022/12/21 07:30:48;;;;;;;39.83;21.23;;;;;;;;;;5011013;28;20190;-81
2022/12/21 07:33:17;;;;;;;45.63;22.80;;;;;;;;;;5009599;28;20190;-82
2022/12/21 07:35:42;;;;;;;43.10;24.53;;;;;;;;;;5023898;28;20620;-82
2022/12/21 07:38:07;;;;;;;39.87;23.97;;;;;;;;;;4994435;28;20314;-82
2022/12/21 07:40:32;;;;;;;37.80;22.80;;;;;;;;;;5009539;28;20264;-81
2022/12/21 07:42:58;;;;;;;46.07;23.13;;;;;;;;;;5008847;28;20599;-81
2022/12/21 07:45:23;;;;;;;42.23;22.00;;;;;;;;;;5016447;28;20250;-81
2022/12/21 07:47:48;;;;;;;44.30;23.60;;;;;;;;;;5022032;28;20171;-81
2022/12/21 07:50:13;;;;;;;40.40;21.70;;;;;;;;;;5015859;28;20183;-81
2022/12/21 07:52:39;;;;;;;43.40;23.40;;;;;;;;;;5014917;28;20187;-81
2022/12/21 07:55:05;;;;;;;41.40;23.27;;;;;;;;;;5013713;28;20202;-82
2022/12/21 07:57:30;;;;;;;46.50;23.77;;;;;;;;;;5014534;28;20569;-81
2022/12/21 07:59:55;;;;;;;40.13;21.87;;;;;;;;;;5014250;28;20202;-81
2022/12/21 08:02:21;;;;;;;36.13;21.97;;;;;;;;;;5001557;28;20199;-82
2022/12/21 08:04:46;;;;;;;38.90;21.70;;;;;;;;;;5008645;28;20235;-81
2022/12/21 08:07:11;;;;;;;39.17;22.93;;;;;;;;;;5017847;28;20187;-80
2022/12/21 08:09:37;;;;;;;36.60;21.67;;;;;;;;;;5015636;28;20698;-81
2022/12/21 08:12:02;;;;;;;40.67;21.63;;;;;;;;;;5012303;28;20183;-81
2022/12/21 08:14:27;;;;;;;36.80;21.90;;;;;;;;;;5016476;28;20179;-81
2022/12/21 08:16:53;;;;;;;42.90;22.37;;;;;;;;;;5011146;28;20300;-82
2022/12/21 08:19:19;;;;;;;39.40;22.13;;;;;;;;;;5003093;28;20183;-81
2022/12/21 08:21:44;;;;;;;45.03;22.27;;;;;;;;;;5012048;28;20171;-82
2022/12/21 08:24:09;;;;;;;41.53;23.73;;;;;;;;;;5010589;28;20191;-81
2022/12/21 08:26:34;;;;;;;47.07;21.83;;;;;;;;;;5015533;28;20203;-81
2022/12/21 08:28:59;;;;;;;41.50;22.33;;;;;;;;;;5011678;28;20262;-81
2022/12/21 08:31:25;;;;;;;42.67;21.93;;;;;;;;;;5008643;28;20183;-81
2022/12/21 08:33:50;;;;;;;40.60;22.97;;;;;;;;;;5013837;28;20217;-81
2022/12/21 08:36:24;;;;;;;45.67;23.10;;;;;;;;;;5012992;28;20219;-81
2022/12/21 08:38:50;;;;;;;39.37;21.40;;;;;;;;;;5015252;28;20182;-81
2022/12/21 08:41:16;;;;;;;43.67;21.87;;;;;;;;;;5011756;28;20576;-82
2022/12/21 08:43:41;;;;;;;46.47;22.93;;;;;;;;;;5012288;28;20175;-82
2022/12/21 08:46:07;;;;;;;45.50;22.67;;;;;;;;;;5006738;28;20199;-82
2022/12/21 08:48:32;;;;;;;38.67;21.13;;;;;;;;;;5013130;28;20190;-81
2022/12/21 08:50:58;;;;;;;40.13;21.60;;;;;;;;;;5010607;28;20187;-81
2022/12/21 08:53:24;;;;;;;40.80;23.20;;;;;;;;;;4997145;28;20222;-82
2022/12/21 08:55:49;;;;;;;44.33;21.77;;;;;;;;;;5005070;28;20287;-82
2022/12/21 08:58:14;;;;;;;39.13;21.53;;;;;;;;;;5000646;28;20641;-82
2022/12/21 09:00:40;;;;;;;39.37;21.77;;;;;;;;;;5008009;28;20199;-82
2022/12/21 09:03:06;;;;;;;42.77;22.27;;;;;;;;;;5006491;28;20225;-82
2022/12/21 09:05:32;;;;;;;43.27;22.20;;;;;;;;;;5015399;28;20207;-81
2022/12/21 09:07:57;;;;;;;36.07;21.10;;;;;;;;;;5008854;28;20179;-82
2022/12/21 09:10:22;;;;;;;39.13;20.97;;;;;;;;;;5011285;28;20694;-81
2022/12/21 09:12:47;;;;;;;43.83;21.23;;;;;;;;;;5005725;28;20222;-82
2022/12/21 09:15:12;;;;;;;39.70;20.63;;;;;;;;;;5005908;28;20226;-81
2022/12/21 09:17:38;;;;;;;40.73;22.77;;;;;;;;;;5008180;28;20212;-81
2022/12/21 09:20:03;;;;;;;38.07;20.07;;;;;;;;;;5008457;28;20217;-81
2022/12/21 09:22:28;;;;;;;41.97;21.03;;;;;;;;;;5009440;28;20927;-81
2022/12/21 09:24:54;;;;;;;35.27;20.00;;;;;;;;;;5006768;28;20579;-81
2022/12/21 09:27:19;;;;;;;34.73;21.43;;;;;;;;;;5013385;28;20250;-81
2022/12/21 09:29:44;;;;;;;33.10;19.77;;;;;;;;;;5011939;28;20541;-81
2022/12/21 09:32:10;;;;;;;38.87;22.70;;;;;;;;;;5009990;28;20179;-81
2022/12/21 09:34:35;;;;;;;45.63;21.77;;;;;;;;;;5008974;28;20179;-81
2022/12/21 09:37:00;;;;;;;37.83;21.77;;;;;;;;;;5007408;28;20314;-81
2022/12/21 09:39:25;;;;;;;33.37;20.57;;;;;;;;;;5010922;28;20195;-81
2022/12/21 09:42:02;;;;;;;35.37;21.73;;;;;;;;;;5016855;28;20189;-81
2022/12/21 09:44:27;;;;;;;41.57;21.93;;;;;;;;;;5022692;28;20642;-80
2022/12/21 09:46:54;;;;;;;33.23;19.53;;;;;;;;;;5013821;28;20211;-80
2022/12/21 09:49:21;;;;;;;42.00;22.27;;;;;;;;;;5017663;28;20708;-79
2022/12/21 09:51:51;;;;;;;34.30;20.43;;;;;;;;;;5018415;28;20277;-80
2022/12/21 09:54:19;;;;;;;33.53;18.03;;;;;;;;;;5018268;28;20207;-80
2022/12/21 09:56:49;;;;;;;38.67;18.63;;;;;;;;;;5017418;28;20658;-80
2022/12/21 09:59:16;;;;;;;38.63;19.30;;;;;;;;;;5022664;28;20189;-80
2022/12/21 10:02:00;;;;;;;32.10;18.33;;;;;;;;;;5018707;28;20218;-79
2022/12/21 10:04:44;;;;;;;34.60;19.53;;;;;;;;;;5021205;28;20205;-79
2022/12/21 10:07:26;;;;;;;39.27;20.13;;;;;;;;;;5015555;28;20207;-79
2022/12/21 10:09:51;;;;;;;38.60;21.83;;;;;;;;;;5019376;28;20220;-80
2022/12/21 10:12:35;;;;;;;36.53;19.43;;;;;;;;;;5019089;28;20242;-80
2022/12/21 10:15:07;;;;;;;35.87;18.97;;;;;;;;;;5020808;28;20193;-79
2022/12/21 10:17:38;;;;;;;38.07;19.87;;;;;;;;;;5021014;28;20258;-80
2022/12/21 10:20:06;;;;;;;34.80;20.57;;;;;;;;;;5011732;28;20702;-80
2022/12/21 10:22:36;;;;;;;34.17;19.50;;;;;;;;;;5013872;28;20547;-80
2022/12/21 10:25:04;;;;;;;30.57;18.03;;;;;;;;;;5013480;28;20174;-80
2022/12/21 10:27:35;;;;;;;28.93;18.63;;;;;;;;;;5011641;28;20261;-80
2022/12/21 10:30:01;;;;;;;34.47;19.30;;;;;;;;;;5006027;28;20219;-80
2022/12/21 10:32:28;;;;;;;34.13;18.73;;;;;;;;;;5010525;28;20264;-80
2022/12/21 10:34:54;;;;;;;33.10;17.67;;;;;;;;;;5008649;28;20223;-79
2022/12/21 10:37:20;;;;;;;31.47;18.13;;;;;;;;;;5010592;28;20218;-81
2022/12/21 10:39:46;;;;;;;28.50;17.37;;;;;;;;;;5006176;28;20684;-81
2022/12/21 10:42:14;;;;;;;33.80;16.77;;;;;;;;;;5005306;28;20222;-81
2022/12/21 10:44:40;;;;;;;23.70;16.40;;;;;;;;;;5004827;28;20177;-81
2022/12/21 10:47:16;;;;;;;27.43;16.47;;;;;;;;;;5002296;28;20204;-81
2022/12/21 10:49:42;;;;;;;34.50;17.40;;;;;;;;;;5010505;28;20183;-80
2022/12/21 10:52:26;;;;;;;32.13;17.70;;;;;;;;;;5014703;28;20179;-81
2022/12/21 10:54:52;;;;;;;33.00;18.03;;;;;;;;;;5003716;28;21949;-81
2022/12/21 10:57:17;;;;;;;31.37;18.47;;;;;;;;;;5010577;28;20707;-81
2022/12/21 10:59:42;;;;;;;40.73;21.67;;;;;;;;;;4999896;28;20221;-81
2022/12/21 11:02:27;;;;;;;39.40;21.37;;;;;;;;;;5005805;28;20179;-80
2022/12/21 11:04:52;;;;;;;36.33;18.93;;;;;;;;;;5005178;28;20620;-80
2022/12/21 11:07:27;;;;;;;38.53;21.20;;;;;;;;;;5008590;28;20222;-80
2022/12/21 11:10:00;;;;;;;38.63;22.73;;;;;;;;;;5006288;28;20842;-80
2022/12/21 11:12:26;;;;;;;38.37;23.10;;;;;;;;;;5010317;28;20225;-81
2022/12/21 11:14:52;;;;;;;45.63;24.43;;;;;;;;;;5006490;28;20175;-81
2022/12/21 11:17:27;;;;;;;44.77;25.83;;;;;;;;;;5007890;28;21926;-81
2022/12/21 11:20:13;;;;;;;37.70;22.27;;;;;;;;;;5004655;28;20203;-81
2022/12/21 11:22:40;;;;;;;36.10;22.57;;;;;;;;;;5007435;28;20593;-81
2022/12/21 11:25:12;;;;;;;40.77;23.27;;;;;;;;;;5010293;28;20187;-80
2022/12/21 11:27:43;;;;;;;39.33;21.27;;;;;;;;;;5009566;28;20273;-81
2022/12/21 11:30:15;;;;;;;39.53;22.07;;;;;;;;;;5011315;28;20210;-82
2022/12/21 11:32:43;;;;;;;34.97;21.10;;;;;;;;;;5010064;28;20186;-82
2022/12/21 11:35:19;;;;;;;36.63;19.73;;;;;;;;;;5013587;28;20219;-81
2022/12/21 11:37:46;;;;;;;36.20;20.23;;;;;;;;;;5009690;28;20228;-82
2022/12/21 11:40:11;;;;;;;34.83;19.40;;;;;;;;;;5008078;28;20700;-82
2022/12/21 11:42:48;;;;;;;35.50;20.37;;;;;;;;;;5007223;28;20190;-82
2022/12/21 11:45:20;;;;;;;33.70;20.07;;;;;;;;;;5014310;28;20193;-81
2022/12/21 11:47:48;;;;;;;31.17;17.43;;;;;;;;;;5009599;28;20211;-80
2022/12/21 11:50:15;;;;;;;33.57;19.50;;;;;;;;;;5011241;28;20206;-81
2022/12/21 11:52:41;;;;;;;32.90;18.57;;;;;;;;;;5006732;28;20179;-80
2022/12/21 11:55:12;;;;;;;29.40;17.83;;;;;;;;;;4999966;28;20563;-79
2022/12/21 11:57:43;;;;;;;33.27;17.90;;;;;;;;;;5011632;28;20206;-79
2022/12/21 12:00:18;;;;;;;35.77;18.50;;;;;;;;;;5011170;28;20215;-79
2022/12/21 12:02:43;;;;;;;30.97;17.43;;;;;;;;;;5007185;28;20186;-79
2022/12/21 12:05:23;;;;;;;30.17;16.03;;;;;;;;;;5007819;28;20171;-80
2022/12/21 12:07:57;;;;;;;28.27;15.87;;;;;;;;;;5011183;28;20182;-80
2022/12/21 12:10:38;;;;;;;25.03;13.97;;;;;;;;;;5011725;28;20273;-80
2022/12/21 12:13:22;;;;;;;27.20;14.10;;;;;;;;;;5010248;28;20601;-81
2022/12/21 12:15:47;;;;;;;27.20;14.93;;;;;;;;;;5006036;28;20202;-80
2022/12/21 12:18:20;;;;;;;29.17;15.23;;;;;;;;;;5010198;28;20186;-80
2022/12/21 12:20:48;;;;;;;29.40;15.40;;;;;;;;;;5010326;28;20585;-80
2022/12/21 12:23:23;;;;;;;29.73;15.30;;;;;;;;;;5012123;28;20175;-80
2022/12/21 12:25:48;;;;;;;27.87;14.50;;;;;;;;;;5005955;28;20221;-80
2022/12/21 12:28:32;;;;;;;29.40;16.63;;;;;;;;;;5010740;28;20198;-80
2022/12/21 12:30:57;;;;;;;25.77;16.80;;;;;;;;;;5010661;28;20178;-81
2022/12/21 12:34:00;;;;;;;33.03;17.47;;;;;;;;;;5013531;28;20187;-80
2022/12/21 12:36:28;;;;;;;31.90;17.03;;;;;;;;;;4933810;29;20229;-80
2022/12/21 12:39:03;;;;;;;32.37;18.07;;;;;;;;;;4922116;29;20269;-80
2022/12/21 12:41:31;;;;;;;31.53;18.30;;;;;;;;;;4973821;28;20333;-80
2022/12/21 12:44:19;;;;;;;28.40;16.63;;;;;;;;;;5013810;28;20182;-80
2022/12/21 12:46:51;;;;;;;32.17;19.57;;;;;;;;;;4956334;28;20207;-80
2022/12/21 12:49:35;;;;;;;34.27;18.03;;;;;;;;;;5011558;28;20183;-80
2022/12/21 12:52:19;;;;;;;31.03;17.87;;;;;;;;;;4999067;28;20219;-80
2022/12/21 12:54:44;;;;;;;28.73;17.00;;;;;;;;;;5005566;28;20191;-81
2022/12/21 12:57:22;;;;;;;27.43;16.83;;;;;;;;;;5010277;28;20199;-81
2022/12/21 13:00:01;;;;;;;30.20;17.87;;;;;;;;;;5010813;28;20293;-80
2022/12/21 13:02:26;;;;;;;28.77;17.23;;;;;;;;;;5002806;28;20179;-80
2022/12/21 13:05:05;;;;;;;34.17;19.50;;;;;;;;;;5007300;28;20328;-78
2022/12/21 13:07:45;;;;;;;34.17;20.03;;;;;;;;;;5001116;28;20264;-81
2022/12/21 13:10:29;;;;;;;35.63;17.47;;;;;;;;;;5006632;28;20273;-81
2022/12/21 13:13:05;;;;;;;31.60;18.57;;;;;;;;;;5011783;28;20644;-82
2022/12/21 13:15:37;;;;;;;26.53;17.03;;;;;;;;;;5010534;28;20186;-81
2022/12/21 13:18:08;;;;;;;29.57;16.40;;;;;;;;;;5009542;28;20187;-78
2022/12/21 13:20:35;;;;;;;25.37;16.10;;;;;;;;;;5007969;28;20203;-79
2022/12/21 13:23:07;;;;;;;24.37;15.97;;;;;;;;;;5010726;28;20186;-78
2022/12/21 13:25:40;;;;;;;21.63;14.47;;;;;;;;;;5012431;28;20179;-81
2022/12/21 13:28:10;;;;;;;20.27;13.33;;;;;;;;;;5008228;28;20612;-81
2022/12/21 13:30:38;;;;;;;21.27;12.60;;;;;;;;;;5008833;28;20214;-82
2022/12/21 13:33:04;;;;;;;21.03;11.30;;;;;;;;;;5010800;28;20183;-81
2022/12/21 13:35:38;;;;;;;17.43;10.47;;;;;;;;;;5008081;28;20183;-81
2022/12/21 13:38:08;;;;;;;17.23;11.07;;;;;;;;;;5009692;28;20213;-80
2022/12/21 13:40:34;;;;;;;15.90;11.57;;;;;;;;;;5009349;28;20207;-81
2022/12/21 13:43:05;;;;;;;16.57;11.17;;;;;;;;;;5009260;28;20176;-81
2022/12/21 13:45:34;;;;;;;19.70;9.67;;;;;;;;;;5007942;28;20558;-80
2022/12/21 13:47:59;;;;;;;17.97;10.43;;;;;;;;;;5004420;28;20591;-81
2022/12/21 13:50:28;;;;;;;20.23;12.17;;;;;;;;;;5007001;28;20234;-80
2022/12/21 13:52:59;;;;;;;16.23;10.53;;;;;;;;;;5013919;28;20206;-81
2022/12/21 13:55:48;;;;;;;18.43;11.90;;;;;;;;;;5012830;28;20194;-80
2022/12/21 13:58:31;;;;;;;21.47;12.37;;;;;;;;;;5006334;28;20261;-80
2022/12/21 14:01:05;;;;;;;18.03;11.53;;;;;;;;;;5000817;28;20750;-80
2022/12/21 14:03:30;;;;;;;20.20;12.63;;;;;;;;;;5007921;28;20234;-80
2022/12/21 14:06:18;;;;;;;18.57;11.43;;;;;;;;;;5011265;28;20289;-80
2022/12/21 14:09:02;;;;;;;17.27;10.93;;;;;;;;;;5011618;28;20179;-81
2022/12/21 14:11:33;;;;;;;16.87;10.70;;;;;;;;;;5011061;28;20754;-81
2022/12/21 14:14:11;;;;;;;19.57;10.77;;;;;;;;;;5010619;28;20274;-81
2022/12/21 14:16:36;;;;;;;20.23;10.63;;;;;;;;;;5007654;28;20213;-80
2022/12/21 14:19:11;;;;;;;15.40;10.37;;;;;;;;;;5007185;28;20175;-81
2022/12/21 14:21:36;;;;;;;19.37;10.80;;;;;;;;;;5004159;28;20203;-79
2022/12/21 14:24:03;;;;;;;16.60;11.30;;;;;;;;;;5011894;28;20167;-80
2022/12/21 14:26:37;;;;;;;21.13;10.93;;;;;;;;;;5010169;28;20221;-80
2022/12/21 14:29:04;;;;;;;25.07;12.37;;;;;;;;;;5010456;28;20229;-80
2022/12/21 14:31:30;;;;;;;18.47;11.87;;;;;;;;;;5004655;28;20233;-80
2022/12/21 14:33:57;;;;;;;23.83;12.90;;;;;;;;;;5009746;28;20178;-80